Time;durP1;ratioP1;P1;durP2;ratioP2;P2;SDS_P1;SDS_P2;PMS_P1;PMS_P2;Temp;Humidity;BMP_temperature;BMP_pressure;BME280_temperature;BME280_humidity;BME280_pressure;Samples;Min_cycle;Max_cycle;Signal;HPM_P1;HPM_P2
2022/10/10 00:01:50;;;;;;;;;;;6.60;99.90;;;;;;5030761;28;19921;-68
2022/10/10 00:04:15;;;;;;;;;;;6.60;99.90;;;;;;5027234;28;19925;-67
2022/10/10 00:06:41;;;;;;;;;;;6.60;99.90;;;;;;5033671;28;19921;-67
2022/10/10 00:09:06;;;;;;;;;;;6.60;99.90;;;;;;5029108;28;20016;-67
2022/10/10 00:11:32;;;;;;;;;;;6.60;99.90;;;;;;5030684;28;19929;-67
2022/10/10 00:13:57;;;;;;;;;;;6.60;99.90;;;;;;5030111;28;19995;-67
2022/10/10 00:16:23;;;;;;;;;;;6.50;99.90;;;;;;5029993;28;20379;-67
2022/10/10 00:18:48;;;;;;;;;;;6.50;99.90;;;;;;5034806;28;19920;-68
2022/10/10 00:21:14;;;;;;;;;;;;;;;;;;5032912;28;19921;-67
2022/10/10 00:23:40;;;;;;;;;;;6.40;99.90;;;;;;5033477;28;20306;-67
2022/10/10 00:26:06;;;;;;;;;;;6.40;99.90;;;;;;5029729;28;19968;-67
2022/10/10 00:28:31;;;;;;;;;;;6.40;99.90;;;;;;5028125;28;19925;-67
2022/10/10 00:30:57;;;;;;;;;;;6.40;99.90;;;;;;5035705;28;20322;-67
2022/10/10 00:33:22;;;;;;;;;;;6.30;99.90;;;;;;5028017;28;19921;-68
2022/10/10 00:35:48;;;;;;;;;;;6.30;99.90;;;;;;5029080;28;20016;-67
2022/10/10 00:38:14;;;;;;;;;;;6.30;99.90;;;;;;5026820;28;19921;-67
2022/10/10 00:40:44;;;;;;;;;;;6.30;99.90;;;;;;5033771;28;19929;-68
2022/10/10 00:43:11;;;;;;;;;;;6.20;99.90;;;;;;5029522;28;19983;-68
2022/10/10 00:45:38;;;;;;;;;;;6.20;99.90;;;;;;5011712;28;20402;-67
2022/10/10 00:48:05;;;;;;;;;;;6.20;99.90;;;;;;5029614;28;19968;-68
2022/10/10 00:50:32;;;;;;;;;;;6.20;99.90;;;;;;5043737;28;19921;-67
2022/10/10 00:52:58;;;;;;;;;;;6.20;99.90;;;;;;5033033;28;19925;-67
2022/10/10 00:55:24;;;;;;;;;;;6.20;99.90;;;;;;5028870;28;19933;-67
2022/10/10 00:57:50;;;;;;;;;;;6.20;99.90;;;;;;5029530;28;19932;-67
2022/10/10 01:00:15;;;;;;;;;;;6.20;99.90;;;;;;5029002;28;21405;-68
2022/10/10 01:02:41;;;;;;;;;;;6.20;99.90;;;;;;5030968;28;20272;-67
2022/10/10 01:05:06;;;;;;;;;;;6.10;99.90;;;;;;5031014;28;19925;-67
2022/10/10 01:07:32;;;;;;;;;;;6.20;99.90;;;;;;5030768;28;19994;-67
2022/10/10 01:09:59;;;;;;;;;;;6.20;99.90;;;;;;5029758;28;19921;-67
2022/10/10 01:12:43;;;;;;;;;;;6.10;99.90;;;;;;5029523;28;20020;-67
2022/10/10 01:15:09;;;;;;;;;;;6.10;99.90;;;;;;5029584;28;19952;-68
2022/10/10 01:17:37;;;;;;;;;;;6.10;99.90;;;;;;5018467;28;20369;-67
2022/10/10 01:20:03;;;;;;;;;;;6.20;99.90;;;;;;5027885;28;20378;-67
2022/10/10 01:22:35;;;;;;;;;;;6.20;99.90;;;;;;5030423;28;19929;-67
2022/10/10 01:25:09;;;;;;;;;;;6.20;99.90;;;;;;5029163;28;19933;-67
2022/10/10 01:27:55;;;;;;;;;;;6.10;99.90;;;;;;5028694;28;19922;-67
2022/10/10 01:30:22;;;;;;;;;;;6.20;99.90;;;;;;5009689;28;20334;-67
2022/10/10 01:32:50;;;;;;;;;;;6.10;99.90;;;;;;5018034;28;19932;-67
2022/10/10 01:35:48;;;;;;;;;;;6.10;99.90;;;;;;5029415;28;19987;-67
2022/10/10 01:38:21;;;;;;;;;;;6.10;99.90;;;;;;4994191;28;19947;-67
2022/10/10 01:40:49;;;;;;;;;;;6.10;99.90;;;;;;5033004;28;19921;-67
2022/10/10 01:43:15;;;;;;;;;;;6.10;99.90;;;;;;5027433;28;20055;-67
2022/10/10 01:45:45;;;;;;;;;;;6.10;99.90;;;;;;5031341;28;19932;-67
2022/10/10 01:48:11;;;;;;;;;;;6.10;99.90;;;;;;5033024;28;19921;-67
2022/10/10 01:50:57;;;;;;;;;;;6.10;99.90;;;;;;5031591;28;20409;-68
2022/10/10 01:53:26;;;;;;;;;;;6.00;99.90;;;;;;5032516;28;20024;-67
2022/10/10 01:56:03;;;;;;;;;;;6.00;99.90;;;;;;5037318;28;20454;-67
2022/10/10 01:58:35;;;;;;;;;;;6.00;99.90;;;;;;5034752;28;19924;-67
2022/10/10 02:01:03;;;;;;;;;;;6.00;99.90;;;;;;5037456;28;19932;-67
2022/10/10 02:03:30;;;;;;;;;;;6.00;99.90;;;;;;5031382;28;19932;-67
2022/10/10 02:06:08;;;;;;;;;;;6.00;99.90;;;;;;5032216;28;19925;-67
2022/10/10 02:08:35;;;;;;;;;;;6.00;99.90;;;;;;5028703;28;20054;-68
2022/10/10 02:11:05;;;;;;;;;;;6.00;99.90;;;;;;5032109;28;19928;-67
2022/10/10 02:13:34;;;;;;;;;;;6.00;99.90;;;;;;5033031;28;19931;-67
2022/10/10 02:16:00;;;;;;;;;;;6.00;99.90;;;;;;5032555;28;19929;-67
2022/10/10 02:18:27;;;;;;;;;;;6.00;99.90;;;;;;5031891;28;19956;-67
2022/10/10 02:20:54;;;;;;;;;;;5.90;99.90;;;;;;5031130;28;19928;-67
2022/10/10 02:23:20;;;;;;;;;;;5.90;99.90;;;;;;5038724;28;19931;-67
2022/10/10 02:25:54;;;;;;;;;;;5.90;99.90;;;;;;5035889;28;20008;-68
2022/10/10 02:28:22;;;;;;;;;;;5.90;99.90;;;;;;5039796;28;20010;-67
2022/10/10 02:30:49;;;;;;;;;;;5.80;99.90;;;;;;5037232;28;19925;-67
2022/10/10 02:33:18;;;;;;;;;;;5.90;99.90;;;;;;5034972;28;19921;-67
2022/10/10 02:35:44;;;;;;;;;;;5.90;99.90;;;;;;5034506;28;19968;-67
2022/10/10 02:38:11;;;;;;;;;;;5.90;99.90;;;;;;5029887;28;20030;-67
2022/10/10 02:40:37;;;;;;;;;;;5.80;99.90;;;;;;5028155;28;20294;-67
2022/10/10 02:43:04;;;;;;;;;;;5.80;99.90;;;;;;5029983;28;19926;-67
2022/10/10 02:45:29;;;;;;;;;;;5.80;99.90;;;;;;5031812;28;19933;-67
2022/10/10 02:47:55;;;;;;;;;;;5.90;99.90;;;;;;5033637;28;19920;-68
2022/10/10 02:50:21;;;;;;;;;;;5.80;99.90;;;;;;5036920;28;19932;-68
2022/10/10 02:52:46;;;;;;;;;;;5.90;99.90;;;;;;5031920;28;19921;-67
2022/10/10 02:55:12;;;;;;;;;;;5.80;99.90;;;;;;5014148;28;20418;-67
2022/10/10 02:57:37;;;;;;;;;;;5.90;99.90;;;;;;5033170;28;19931;-67
2022/10/10 03:00:04;;;;;;;;;;;5.90;99.90;;;;;;5039515;28;19987;-67
2022/10/10 03:02:29;;;;;;;;;;;5.90;99.90;;;;;;5036403;28;20020;-68
2022/10/10 03:04:55;;;;;;;;;;;5.90;99.90;;;;;;5030799;28;19929;-67
2022/10/10 03:07:20;;;;;;;;;;;5.90;99.90;;;;;;5033395;28;20008;-67
2022/10/10 03:09:45;;;;;;;;;;;6.00;99.90;;;;;;5030272;28;19927;-67
2022/10/10 03:12:11;;;;;;;;;;;5.90;99.90;;;;;;5031019;28;19928;-67
2022/10/10 03:14:37;;;;;;;;;;;5.90;99.90;;;;;;5032369;28;20008;-67
2022/10/10 03:17:02;;;;;;;;;;;5.90;99.90;;;;;;5030328;28;19921;-67
2022/10/10 03:19:28;;;;;;;;;;;5.90;99.90;;;;;;5032826;28;20322;-67
2022/10/10 03:21:53;;;;;;;;;;;5.90;99.90;;;;;;5013769;28;19929;-67
2022/10/10 03:24:19;;;;;;;;;;;5.90;99.90;;;;;;5029536;28;20020;-67
2022/10/10 03:26:45;;;;;;;;;;;6.00;99.90;;;;;;5030396;28;19929;-67
2022/10/10 03:29:10;;;;;;;;;;;6.00;99.90;;;;;;5029174;28;19929;-67
2022/10/10 03:31:36;;;;;;;;;;;6.00;99.90;;;;;;5032384;28;19929;-68
2022/10/10 03:34:01;;;;;;;;;;;6.00;99.90;;;;;;5034246;28;20008;-68
2022/10/10 03:36:27;;;;;;;;;;;6.00;99.90;;;;;;5032306;28;19921;-67
2022/10/10 03:38:52;;;;;;;;;;;6.00;99.90;;;;;;5030853;28;19940;-67
2022/10/10 03:41:18;;;;;;;;;;;6.00;99.90;;;;;;5031873;28;19925;-67
2022/10/10 03:43:43;;;;;;;;;;;6.00;99.90;;;;;;5030497;28;19975;-67
2022/10/10 03:46:09;;;;;;;;;;;6.00;99.90;;;;;;5027142;28;20024;-67
2022/10/10 03:48:34;;;;;;;;;;;6.00;99.90;;;;;;5030034;28;19927;-67
2022/10/10 03:51:00;;;;;;;;;;;6.00;99.90;;;;;;5032858;28;19929;-67
2022/10/10 03:53:25;;;;;;;;;;;6.00;99.90;;;;;;5030799;28;20008;-67
2022/10/10 03:55:52;;;;;;;;;;;6.00;99.90;;;;;;5030319;28;20421;-67
2022/10/10 03:58:17;;;;;;;;;;;6.00;99.90;;;;;;5031764;28;19931;-67
2022/10/10 04:00:43;;;;;;;;;;;6.00;99.90;;;;;;5032036;28;20007;-67
2022/10/10 04:03:08;;;;;;;;;;;6.00;99.90;;;;;;5029205;28;19921;-67
2022/10/10 04:05:34;;;;;;;;;;;6.00;99.90;;;;;;5034748;28;19924;-68
2022/10/10 04:08:00;;;;;;;;;;;6.00;99.90;;;;;;5028172;28;19979;-67
2022/10/10 04:10:26;;;;;;;;;;;6.00;99.90;;;;;;5030351;28;20398;-67
2022/10/10 04:12:51;;;;;;;;;;;6.00;99.90;;;;;;5030438;28;19971;-67
2022/10/10 04:15:16;;;;;;;;;;;6.00;99.90;;;;;;5014262;28;19921;-68
2022/10/10 04:17:42;;;;;;;;;;;5.90;99.90;;;;;;5033103;28;19921;-67
2022/10/10 04:20:07;;;;;;;;;;;5.90;99.90;;;;;;5032592;28;19921;-67
2022/10/10 04:22:33;;;;;;;;;;;5.80;99.90;;;;;;5034243;28;19921;-67
2022/10/10 04:24:58;;;;;;;;;;;5.90;99.90;;;;;;5034137;28;19940;-67
2022/10/10 04:27:24;;;;;;;;;;;5.80;99.90;;;;;;5031285;28;20087;-67
2022/10/10 04:29:49;;;;;;;;;;;5.80;99.90;;;;;;5029613;28;19933;-67
2022/10/10 04:32:15;;;;;;;;;;;5.80;99.90;;;;;;5029756;28;20012;-67
2022/10/10 04:34:40;;;;;;;;;;;5.80;99.90;;;;;;5032297;28;19934;-67
2022/10/10 04:37:06;;;;;;;;;;;5.80;99.90;;;;;;5032884;28;19961;-68
2022/10/10 04:39:31;;;;;;;;;;;5.80;99.90;;;;;;5032893;28;19928;-67
2022/10/10 04:41:57;;;;;;;;;;;5.80;99.90;;;;;;5030997;28;19921;-68
2022/10/10 04:44:22;;;;;;;;;;;5.70;99.90;;;;;;5030753;28;19925;-67
2022/10/10 04:46:48;;;;;;;;;;;5.80;99.90;;;;;;5026161;28;20317;-67
2022/10/10 04:49:13;;;;;;;;;;;5.70;99.90;;;;;;5028506;28;19921;-67
2022/10/10 04:51:38;;;;;;;;;;;5.70;99.90;;;;;;5018641;28;20647;-67
2022/10/10 04:54:04;;;;;;;;;;;5.70;99.90;;;;;;5032423;28;19978;-67
2022/10/10 04:56:29;;;;;;;;;;;5.70;99.90;;;;;;5027957;28;19929;-67
2022/10/10 04:58:55;;;;;;;;;;;5.70;99.90;;;;;;5029647;28;19928;-67
2022/10/10 05:01:20;;;;;;;;;;;5.70;99.90;;;;;;5031959;28;19935;-67
2022/10/10 05:03:46;;;;;;;;;;;5.60;99.90;;;;;;5030988;28;20497;-67
2022/10/10 05:06:11;;;;;;;;;;;5.60;99.90;;;;;;5032044;28;19929;-67
2022/10/10 05:08:37;;;;;;;;;;;5.60;99.90;;;;;;5028538;28;19925;-67
2022/10/10 05:11:02;;;;;;;;;;;5.60;99.90;;;;;;5028669;28;19921;-67
2022/10/10 05:13:28;;;;;;;;;;;5.60;99.90;;;;;;5031158;28;19926;-67
2022/10/10 05:15:53;;;;;;;;;;;5.60;99.90;;;;;;5034662;28;19925;-67
2022/10/10 05:18:19;;;;;;;;;;;5.60;99.90;;;;;;5029133;28;20394;-67
2022/10/10 05:20:46;;;;;;;;;;;5.60;99.90;;;;;;5020063;28;20473;-67
2022/10/10 05:23:12;;;;;;;;;;;5.60;99.90;;;;;;5034261;28;20561;-67
2022/10/10 05:25:38;;;;;;;;;;;5.60;99.90;;;;;;5032503;28;20308;-68
2022/10/10 05:28:03;;;;;;;;;;;5.60;99.90;;;;;;5032563;28;19927;-68
2022/10/10 05:30:29;;;;;;;;;;;5.50;99.90;;;;;;5032116;28;19929;-67
2022/10/10 05:32:54;;;;;;;;;;;5.60;99.90;;;;;;5038536;28;19946;-68
2022/10/10 05:35:20;;;;;;;;;;;5.60;99.90;;;;;;5031636;28;19929;-67
2022/10/10 05:37:45;;;;;;;;;;;5.50;99.90;;;;;;5035293;28;20322;-67
2022/10/10 05:40:11;;;;;;;;;;;5.50;99.90;;;;;;5062291;22;19928;-67
2022/10/10 05:42:36;;;;;;;;;;;5.60;99.90;;;;;;5052002;28;19925;-67
2022/10/10 05:45:02;;;;;;;;;;;5.50;99.90;;;;;;5058089;28;19929;-67
2022/10/10 05:47:27;;;;;;;;;;;5.60;99.90;;;;;;5049455;28;19924;-67
2022/10/10 05:49:53;;;;;;;;;;;5.60;99.90;;;;;;5050774;28;19931;-67
2022/10/10 05:52:18;;;;;;;;;;;5.60;99.90;;;;;;5050097;28;20251;-67
2022/10/10 05:54:44;;;;;;;;;;;5.60;99.90;;;;;;5048521;28;19955;-67
2022/10/10 05:57:09;;;;;;;;;;;5.60;99.90;;;;;;5050659;28;20007;-67
2022/10/10 05:59:35;;;;;;;;;;;5.60;99.90;;;;;;5049773;28;19925;-67
2022/10/10 06:02:00;;;;;;;;;;;5.60;99.90;;;;;;5058230;28;20383;-66
2022/10/10 06:04:26;;;;;;;;;;;5.60;99.90;;;;;;5056584;28;19968;-66
2022/10/10 06:06:51;;;;;;;;;;;5.70;99.90;;;;;;5051264;28;19924;-66
2022/10/10 06:09:17;;;;;;;;;;;5.70;99.90;;;;;;5049398;28;20430;-66
2022/10/10 06:11:42;;;;;;;;;;;5.70;99.90;;;;;;5049590;28;19927;-66
2022/10/10 06:14:08;;;;;;;;;;;5.80;99.90;;;;;;5047954;28;19921;-66
2022/10/10 06:16:35;;;;;;;;;;;5.80;99.90;;;;;;5052077;28;20317;-66
2022/10/10 06:19:02;;;;;;;;;;;5.90;99.90;;;;;;5058175;28;19925;-66
2022/10/10 06:21:27;;;;;;;;;;;5.80;99.90;;;;;;5055764;28;19928;-66
2022/10/10 06:23:53;;;;;;;;;;;5.90;99.90;;;;;;5048498;28;20538;-66
2022/10/10 06:26:18;;;;;;;;;;;6.00;99.90;;;;;;5052262;28;19929;-66
2022/10/10 06:28:43;;;;;;;;;;;6.00;99.90;;;;;;5034214;28;19925;-66
2022/10/10 06:31:10;;;;;;;;;;;6.00;99.90;;;;;;5048292;28;19925;-66
2022/10/10 06:33:36;;;;;;;;;;;6.10;99.90;;;;;;5052308;28;19924;-66
2022/10/10 06:36:06;;;;;;;;;;;6.20;99.90;;;;;;5051961;28;19928;-66
2022/10/10 06:38:34;;;;;;;;;;;6.30;99.90;;;;;;5041334;28;20036;-67
2022/10/10 06:41:01;;;;;;;;;;;6.50;99.90;;;;;;5043225;28;20011;-66
2022/10/10 06:43:27;;;;;;;;;;;6.70;99.90;;;;;;5054424;28;19924;-66
2022/10/10 06:45:52;;;;;;;;;;;7.20;99.90;;;;;;5046431;28;19983;-66
2022/10/10 06:48:17;;;;;;;;;;;7.70;99.90;;;;;;5052430;28;19920;-67
2022/10/10 06:50:54;;;;;;;;;;;8.00;99.90;;;;;;5060362;28;20286;-66
2022/10/10 06:53:19;;;;;;;;;;;8.40;99.90;;;;;;5050052;28;20561;-66
2022/10/10 06:55:45;;;;;;;;;;;9.20;99.90;;;;;;5055678;28;19966;-66
2022/10/10 06:58:11;;;;;;;;;;;10.00;99.90;;;;;;5046307;28;19924;-67
2022/10/10 07:00:36;;;;;;;;;;;10.70;99.90;;;;;;5048971;28;20432;-67
2022/10/10 07:03:02;;;;;;;;;;;11.50;99.90;;;;;;5044388;28;20032;-67
2022/10/10 07:05:27;;;;;;;;;;;11.90;99.90;;;;;;5045039;28;19925;-67
2022/10/10 07:07:53;;;;;;;;;;;12.50;99.90;;;;;;5048747;28;19925;-67
2022/10/10 07:10:18;;;;;;;;;;;12.60;99.90;;;;;;5049415;28;19947;-67
2022/10/10 07:12:44;;;;;;;;;;;12.30;99.90;;;;;;5052513;28;19928;-67
2022/10/10 07:15:09;;;;;;;;;;;11.80;99.90;;;;;;5051184;28;19974;-67
2022/10/10 07:17:35;;;;;;;;;;;11.40;99.90;;;;;;5048168;28;19968;-67
2022/10/10 07:20:00;;;;;;;;;;;11.10;99.90;;;;;;5049866;28;19924;-67
2022/10/10 07:22:26;;;;;;;;;;;11.00;99.90;;;;;;5048562;28;19928;-67
2022/10/10 07:24:51;;;;;;;;;;;10.90;99.90;;;;;;5049181;28;19944;-67
2022/10/10 07:27:17;;;;;;;;;;;10.90;99.90;;;;;;5041916;28;20291;-67
2022/10/10 07:29:42;;;;;;;;;;;10.90;99.90;;;;;;5048656;28;19925;-67
2022/10/10 07:32:08;;;;;;;;;;;10.90;99.90;;;;;;5048169;28;20011;-67
2022/10/10 07:34:36;;;;;;;;;;;10.90;99.90;;;;;;5043748;28;19940;-67
2022/10/10 07:37:02;;;;;;;;;;;10.80;99.90;;;;;;5046879;28;20300;-68
2022/10/10 07:39:27;;;;;;;;;;;10.80;99.90;;;;;;5048683;28;19932;-68
2022/10/10 07:41:53;;;;;;;;;;;10.70;99.90;;;;;;5051645;28;19937;-68
2022/10/10 07:44:19;;;;;;;;;;;10.70;99.90;;;;;;5041404;28;19925;-67
2022/10/10 07:46:45;;;;;;;;;;;10.60;99.90;;;;;;5042304;28;20399;-67
2022/10/10 07:49:11;;;;;;;;;;;10.60;99.90;;;;;;5052952;28;20026;-68
2022/10/10 07:51:38;;;;;;;;;;;10.60;99.90;;;;;;5052393;28;20050;-67
2022/10/10 07:54:04;;;;;;;;;;;10.60;99.90;;;;;;5047809;28;20410;-67
2022/10/10 07:56:29;;;;;;;;;;;10.60;99.90;;;;;;5052989;28;20321;-67
2022/10/10 07:58:55;;;;;;;;;;;10.60;99.90;;;;;;5038806;28;19927;-68
2022/10/10 08:01:20;;;;;;;;;;;10.70;99.90;;;;;;5048044;28;19928;-67
2022/10/10 08:03:46;;;;;;;;;;;10.70;99.90;;;;;;5039542;28;20577;-68
2022/10/10 08:06:13;;;;;;;;;;;10.80;99.90;;;;;;5047585;28;20014;-67
2022/10/10 08:08:39;;;;;;;;;;;10.90;99.90;;;;;;5048316;28;19925;-68
2022/10/10 08:11:05;;;;;;;;;;;11.00;99.90;;;;;;5046672;28;19921;-68
2022/10/10 08:13:30;;;;;;;;;;;11.10;99.90;;;;;;5048394;28;20006;-67
2022/10/10 08:15:56;;;;;;;;;;;11.20;99.90;;;;;;5045580;28;19929;-67
2022/10/10 08:18:21;;;;;;;;;;;11.30;99.90;;;;;;5046939;28;19921;-67
2022/10/10 08:20:47;;;;;;;;;;;11.40;99.90;;;;;;5049458;28;19929;-67
2022/10/10 08:23:12;;;;;;;;;;;11.50;99.90;;;;;;5049954;28;20313;-68
2022/10/10 08:25:38;;;;;;;;;;;11.60;99.90;;;;;;5046427;28;19925;-67
2022/10/10 08:28:03;;;;;;;;;;;11.70;99.90;;;;;;5047614;28;19943;-68
2022/10/10 08:30:29;;;;;;;;;;;11.80;99.90;;;;;;5044779;28;19975;-68
2022/10/10 08:32:54;;;;;;;;;;;11.80;99.90;;;;;;5046019;28;19936;-68
2022/10/10 08:35:20;;;;;;;;;;;11.90;99.90;;;;;;5046779;28;19982;-68
2022/10/10 08:37:45;;;;;;;;;;;11.90;99.90;;;;;;5046540;28;19975;-68
2022/10/10 08:40:13;;;;;;;;;;;12.00;99.90;;;;;;5045594;28;20385;-68
2022/10/10 08:42:41;;;;;;;;;;;12.00;99.90;;;;;;5048415;28;20001;-68
2022/10/10 08:45:12;;;;;;;;;;;12.10;99.90;;;;;;5039666;28;19938;-68
2022/10/10 08:47:37;;;;;;;;;;;12.20;99.90;;;;;;5043612;28;19971;-68
2022/10/10 08:50:17;;;;;;;;;;;12.20;99.90;;;;;;5050619;28;20374;-68
2022/10/10 08:52:49;;;;;;;;;;;12.30;99.90;;;;;;5046073;28;19931;-68
2022/10/10 08:55:17;;;;;;;;;;;12.30;99.90;;;;;;5053565;28;19925;-68
2022/10/10 08:57:55;;;;;;;;;;;12.40;99.90;;;;;;5034926;28;19924;-68
2022/10/10 09:00:22;;;;;;;;;;;12.50;99.90;;;;;;5048718;28;19936;-68
2022/10/10 09:02:52;;;;;;;;;;;12.60;99.90;;;;;;5042457;28;19921;-68
2022/10/10 09:05:27;;;;;;;;;;;12.70;99.90;;;;;;5043020;28;20010;-68
2022/10/10 09:08:02;;;;;;;;;;;12.80;99.90;;;;;;5041079;28;20021;-68
2022/10/10 09:10:35;;;;;;;;;;;12.80;99.90;;;;;;5070278;28;19927;-68
2022/10/10 09:13:09;;;;;;;;;;;12.80;99.90;;;;;;5052906;28;19972;-68
2022/10/10 09:15:44;;;;;;;;;;;12.80;99.90;;;;;;5049471;28;19921;-68
2022/10/10 09:18:19;;;;;;;;;;;12.90;99.90;;;;;;5052455;28;19944;-68
2022/10/10 09:20:50;;;;;;;;;;;12.90;99.90;;;;;;5034080;28;19951;-68
2022/10/10 09:23:33;;;;;;;;;;;12.90;99.90;;;;;;5048767;28;19925;-68
2022/10/10 09:26:01;;;;;;;;;;;12.90;99.90;;;;;;5047234;28;19932;-68
2022/10/10 09:28:30;;;;;;;;;;;13.00;99.90;;;;;;5056679;28;19920;-68
2022/10/10 09:30:58;;;;;;;;;;;13.00;99.90;;;;;;5052626;28;19986;-68
2022/10/10 09:33:24;;;;;;;;;;;;;;;;;;5052393;28;20382;-68
2022/10/10 09:35:51;;;;;;;;;;;13.30;99.90;;;;;;5050770;28;20003;-68
2022/10/10 09:38:35;;;;;;;;;;;13.40;99.90;;;;;;5047741;28;19925;-68
2022/10/10 09:41:04;;;;;;;;;;;13.40;99.90;;;;;;5051791;28;20015;-68
2022/10/10 09:43:31;;;;;;;;;;;13.50;99.90;;;;;;5048755;28;19925;-68
2022/10/10 09:45:56;;;;;;;;;;;13.60;99.90;;;;;;5064914;28;19921;-68
2022/10/10 09:48:26;;;;;;;;;;;13.70;99.90;;;;;;5054326;28;19924;-68
2022/10/10 09:50:51;;;;;;;;;;;13.80;99.90;;;;;;5051710;28;19921;-68
2022/10/10 09:53:17;;;;;;;;;;;14.00;99.90;;;;;;5050489;28;19920;-68
2022/10/10 09:55:44;;;;;;;;;;;14.00;99.90;;;;;;5051126;28;19975;-68
2022/10/10 09:58:24;;;;;;;;;;;14.10;99.90;;;;;;5051685;28;19928;-68
2022/10/10 10:00:49;;;;;;;;;;;14.10;99.90;;;;;;5051951;28;19925;-68
2022/10/10 10:03:16;;;;;;;;;;;14.00;99.90;;;;;;5048557;28;20405;-68
2022/10/10 10:05:43;;;;;;;;;;;14.00;99.90;;;;;;5052800;28;19936;-68
2022/10/10 10:08:23;;;;;;;;;;;14.00;99.90;;;;;;5044337;28;19920;-68
2022/10/10 10:10:49;;;;;;;;;;;14.10;99.90;;;;;;5052718;28;20316;-68
2022/10/10 10:13:20;;;;;;;;;;;14.00;99.90;;;;;;5054113;28;19921;-68
2022/10/10 10:15:47;;;;;;;;;;;14.10;99.90;;;;;;5039536;28;20011;-68
2022/10/10 10:18:16;;;;;;;;;;;14.10;99.90;;;;;;5050460;28;19940;-68
2022/10/10 10:20:45;;;;;;;;;;;14.10;99.90;;;;;;5048083;28;19932;-68
2022/10/10 10:23:25;;;;;;;;;;;14.10;99.90;;;;;;5052532;28;19924;-68
2022/10/10 10:25:58;;;;;;;;;;;14.20;99.90;;;;;;5050013;28;19928;-68
2022/10/10 10:28:24;;;;;;;;;;;14.30;99.90;;;;;;5052373;28;19921;-68
2022/10/10 10:30:51;;;;;;;;;;;14.40;99.90;;;;;;5050771;28;20363;-68
2022/10/10 10:33:29;;;;;;;;;;;14.50;99.90;;;;;;5044616;28;19925;-68
2022/10/10 10:36:03;;;;;;;;;;;14.60;99.90;;;;;;5050978;28;19955;-67
2022/10/10 10:38:43;;;;;;;;;;;14.70;99.90;;;;;;5049917;28;19928;-68
2022/10/10 10:41:28;;;;;;;;;;;14.80;99.90;;;;;;5033499;28;19936;-67
2022/10/10 10:44:01;;;;;;;;;;;14.80;99.90;;;;;;5044338;28;19990;-68
2022/10/10 10:46:33;;;;;;;;;;;14.80;99.90;;;;;;5038118;28;19964;-67
2022/10/10 10:49:00;;;;;;;;;;;14.90;99.90;;;;;;5062661;28;19921;-67
2022/10/10 10:51:34;;;;;;;;;;;15.00;99.90;;;;;;5051980;28;19956;-67
2022/10/10 10:54:18;;;;;;;;;;;15.10;99.90;;;;;;5059288;28;19924;-67
2022/10/10 10:56:51;;;;;;;;;;;15.20;99.90;;;;;;5050351;28;20344;-67
2022/10/10 10:59:20;;;;;;;;;;;15.20;99.90;;;;;;5051431;28;19925;-67
2022/10/10 11:01:45;;;;;;;;;;;15.30;99.90;;;;;;5047863;28;19925;-67
2022/10/10 11:04:10;;;;;;;;;;;15.30;99.90;;;;;;5047882;28;19933;-67
2022/10/10 11:06:49;;;;;;;;;;;15.40;99.90;;;;;;5039187;28;19921;-67
2022/10/10 11:09:33;;;;;;;;;;;15.50;99.90;;;;;;5052542;28;19933;-67
2022/10/10 11:12:03;;;;;;;;;;;15.70;99.90;;;;;;5049308;28;19928;-67
2022/10/10 11:14:52;;;;;;;;;;;15.90;99.90;;;;;;5048450;28;19936;-67
2022/10/10 11:17:20;;;;;;;;;;;16.00;99.90;;;;;;5049675;28;19974;-67
2022/10/10 11:19:58;;;;;;;;;;;16.00;99.90;;;;;;5048873;28;19928;-67
2022/10/10 11:22:25;;;;;;;;;;;16.00;99.90;;;;;;5051915;28;19960;-67
2022/10/10 11:25:12;;;;;;;;;;;15.90;99.90;;;;;;5051768;28;19940;-67
2022/10/10 11:27:41;;;;;;;;;;;15.80;99.90;;;;;;5050321;28;20355;-67
2022/10/10 11:30:18;;;;;;;;;;;15.70;99.90;;;;;;5048672;28;19921;-67
2022/10/10 11:33:03;;;;;;;;;;;15.60;99.90;;;;;;5046399;28;19925;-67
2022/10/10 11:35:43;;;;;;;;;;;15.40;99.90;;;;;;5047976;28;19947;-67
2022/10/10 11:38:12;;;;;;;;;;;15.30;99.90;;;;;;5048096;28;19932;-67
2022/10/10 11:40:46;;;;;;;;;;;15.20;99.90;;;;;;5046783;28;20405;-67
2022/10/10 11:43:16;;;;;;;;;;;15.10;99.90;;;;;;5049244;28;19979;-67
2022/10/10 11:45:43;;;;;;;;;;;15.00;99.90;;;;;;5047499;28;19932;-67
2022/10/10 11:48:14;;;;;;;;;;;14.90;99.90;;;;;;5045825;28;19967;-67
2022/10/10 11:50:41;;;;;;;;;;;14.90;99.90;;;;;;5043425;28;19944;-67
2022/10/10 11:53:15;;;;;;;;;;;14.70;99.90;;;;;;5038840;28;19928;-67
2022/10/10 11:56:01;;;;;;;;;;;14.70;99.90;;;;;;5048991;28;19928;-67
2022/10/10 11:58:35;;;;;;;;;;;14.60;99.90;;;;;;5044359;28;19929;-67
2022/10/10 12:01:09;;;;;;;;;;;14.50;99.90;;;;;;5032589;28;19928;-67
2022/10/10 12:03:35;;;;;;;;;;;14.40;99.90;;;;;;5046851;28;19925;-67
2022/10/10 12:06:10;;;;;;;;;;;14.30;99.90;;;;;;5046707;28;19936;-67
2022/10/10 12:08:38;;;;;;;;;;;14.30;99.90;;;;;;5055583;28;20019;-67
2022/10/10 12:11:06;;;;;;;;;;;14.30;99.90;;;;;;5046417;28;19924;-67
2022/10/10 12:13:33;;;;;;;;;;;14.20;99.90;;;;;;5047078;28;19931;-67
2022/10/10 12:16:01;;;;;;;;;;;14.20;99.90;;;;;;5049858;28;20351;-67
2022/10/10 12:18:27;;;;;;;;;;;14.20;99.90;;;;;;5050309;28;19921;-67
2022/10/10 12:21:03;;;;;;;;;;;14.10;99.90;;;;;;5049917;28;20370;-67
2022/10/10 12:23:29;;;;;;;;;;;14.10;99.90;;;;;;5050070;28;19921;-67
2022/10/10 12:25:55;;;;;;;;;;;14.10;99.90;;;;;;5049503;28;19971;-67
2022/10/10 12:28:23;;;;;;;;;;;14.10;99.90;;;;;;5049187;28;19976;-67
2022/10/10 12:30:55;;;;;;;;;;;14.10;99.90;;;;;;5047645;28;19924;-67
2022/10/10 12:33:42;;;;;;;;;;;14.10;99.90;;;;;;5049345;28;19927;-67
2022/10/10 12:36:17;;;;;;;;;;;14.10;99.90;;;;;;5056203;28;19920;-67
2022/10/10 12:39:02;;;;;;;;;;;14.20;99.90;;;;;;5044028;28;19921;-67
2022/10/10 12:41:46;;;;;;;;;;;14.20;99.90;;;;;;5049806;28;20424;-67
2022/10/10 12:44:19;;;;;;;;;;;14.30;99.90;;;;;;5043676;28;20480;-67
2022/10/10 12:46:47;;;;;;;;;;;14.30;99.90;;;;;;5049671;28;19921;-67
2022/10/10 12:49:17;;;;;;;;;;;14.40;99.90;;;;;;5049373;28;20019;-67
2022/10/10 12:51:43;;;;;;;;;;;14.40;99.90;;;;;;5047369;28;19968;-66
2022/10/10 12:54:20;;;;;;;;;;;14.30;99.90;;;;;;5047142;28;19924;-66
2022/10/10 12:56:46;;;;;;;;;;;14.30;99.90;;;;;;5053750;28;19925;-66
2022/10/10 12:59:24;;;;;;;;;;;14.30;99.90;;;;;;5049001;28;19986;-66
2022/10/10 13:01:51;;;;;;;;;;;14.20;99.90;;;;;;5048349;28;20032;-66
2022/10/10 13:04:17;;;;;;;;;;;14.20;99.90;;;;;;5045015;28;19932;-66
2022/10/10 13:06:45;;;;;;;;;;;14.20;99.90;;;;;;5048744;28;19960;-66
2022/10/10 13:09:15;;;;;;;;;;;14.20;99.90;;;;;;5044965;28;19932;-66
2022/10/10 13:11:55;;;;;;;;;;;14.20;99.90;;;;;;5050734;28;19956;-66
2022/10/10 13:14:21;;;;;;;;;;;14.20;99.90;;;;;;5048199;28;20315;-66
2022/10/10 13:16:47;;;;;;;;;;;14.20;99.90;;;;;;5045202;28;19928;-66
2022/10/10 13:19:17;;;;;;;;;;;14.10;99.90;;;;;;5045529;28;19928;-66
2022/10/10 13:21:42;;;;;;;;;;;14.10;99.90;;;;;;5048543;28;20461;-66
2022/10/10 13:24:13;;;;;;;;;;;14.10;99.90;;;;;;5046462;28;19929;-66
2022/10/10 13:26:42;;;;;;;;;;;14.00;99.90;;;;;;5032571;28;19952;-66
2022/10/10 13:29:20;;;;;;;;;;;14.00;99.90;;;;;;5045748;28;20510;-66
2022/10/10 13:31:45;;;;;;;;;;;14.00;99.90;;;;;;5030554;28;19921;-66
2022/10/10 13:34:13;;;;;;;;;;;14.00;99.90;;;;;;5043765;28;19924;-66
2022/10/10 13:36:38;;;;;;;;;;;14.00;99.90;;;;;;5049007;28;20366;-66
2022/10/10 13:39:04;;;;;;;;;;;14.00;99.90;;;;;;5046250;28;19932;-66
2022/10/10 13:41:29;;;;;;;;;;;13.90;99.90;;;;;;5051589;28;19921;-66
2022/10/10 13:43:55;;;;;;;;;;;13.90;99.90;;;;;;5051784;28;19921;-66
2022/10/10 13:46:22;;;;;;;;;;;13.90;99.90;;;;;;5050977;28;19929;-66
2022/10/10 13:48:49;;;;;;;;;;;13.80;99.90;;;;;;5051868;28;19925;-66
2022/10/10 13:51:14;;;;;;;;;;;13.80;99.90;;;;;;5052303;28;19920;-66
2022/10/10 13:53:40;;;;;;;;;;;13.80;99.90;;;;;;5052433;28;20171;-66
2022/10/10 13:56:24;;;;;;;;;;;13.70;99.90;;;;;;5053443;28;20000;-66
2022/10/10 13:59:03;;;;;;;;;;;13.70;99.90;;;;;;5044704;28;19927;-66
2022/10/10 14:01:31;;;;;;;;;;;13.70;99.90;;;;;;5050455;28;19925;-66
2022/10/10 14:03:59;;;;;;;;;;;13.60;99.90;;;;;;5047531;28;20402;-66
2022/10/10 14:06:26;;;;;;;;;;;13.60;99.90;;;;;;5040108;28;19921;-66
2022/10/10 14:08:52;;;;;;;;;;;13.40;99.90;;;;;;5046986;28;19932;-66
2022/10/10 14:11:19;;;;;;;;;;;13.30;99.90;;;;;;5052859;28;20520;-66
2022/10/10 14:13:53;;;;;;;;;;;13.30;99.90;;;;;;5051457;28;20294;-66
2022/10/10 14:16:18;;;;;;;;;;;13.30;99.90;;;;;;5048209;28;19936;-66
2022/10/10 14:18:44;;;;;;;;;;;13.20;99.90;;;;;;5049428;28;20050;-66
2022/10/10 14:21:10;;;;;;;;;;;13.00;99.90;;;;;;5052356;28;20310;-66
2022/10/10 14:23:36;;;;;;;;;;;12.90;99.90;;;;;;5033545;28;19983;-66
2022/10/10 14:26:02;;;;;;;;;;;12.90;99.90;;;;;;5052737;28;20294;-66
2022/10/10 14:28:29;;;;;;;;;;;12.80;99.90;;;;;;5050133;28;20416;-66
2022/10/10 14:30:54;;;;;;;;;;;12.80;99.90;;;;;;5051766;28;19925;-66